sensor_id;sensor_type;location;lat;lon;timestamp;P1;durP1;ratioP1;P2;durP2;ratioP2
17794;SDS011;9021;50.882;4.326;2022-12-18T21:58:17;21.95;;;14.23;;
17794;SDS011;9021;50.882;4.326;2022-12-18T22:00:43;21.58;;;13.45;;
17794;SDS011;9021;50.882;4.326;2022-12-18T22:03:09;20.98;;;14.32;;
17794;SDS011;9021;50.882;4.326;2022-12-18T22:05:34;22.65;;;14.35;;
17794;SDS011;9021;50.882;4.326;2022-12-18T22:08:00;23.42;;;14.43;;
17794;SDS011;9021;50.882;4.326;2022-12-18T22:10:26;22.95;;;14.48;;
17794;SDS011;9021;50.882;4.326;2022-12-18T22:12:51;25.45;;;15.32;;
17794;SDS011;9021;50.882;4.326;2022-12-18T22:15:17;23.50;;;14.80;;
17794;SDS011;9021;50.882;4.326;2022-12-18T22:17:42;21.38;;;14.32;;
17794;SDS011;9021;50.882;4.326;2022-12-18T22:20:08;22.38;;;14.40;;
17794;SDS011;9021;50.882;4.326;2022-12-18T22:22:34;20.70;;;14.02;;
17794;SDS011;9021;50.882;4.326;2022-12-18T22:25:00;22.42;;;14.90;;
17794;SDS011;9021;50.882;4.326;2022-12-18T22:27:26;23.80;;;15.25;;
17794;SDS011;9021;50.882;4.326;2022-12-18T22:29:51;24.45;;;14.90;;
17794;SDS011;9021;50.882;4.326;2022-12-18T22:32:30;24.20;;;14.70;;
17794;SDS011;9021;50.882;4.326;2022-12-18T22:35:01;22.83;;;15.70;;
17794;SDS011;9021;50.882;4.326;2022-12-18T22:37:28;26.08;;;15.68;;
17794;SDS011;9021;50.882;4.326;2022-12-18T22:39:54;23.65;;;15.05;;
17794;SDS011;9021;50.882;4.326;2022-12-18T22:42:19;24.65;;;14.43;;
17794;SDS011;9021;50.882;4.326;2022-12-18T22:44:45;23.67;;;15.18;;
17794;SDS011;9021;50.882;4.326;2022-12-18T22:47:10;22.27;;;14.15;;
17794;SDS011;9021;50.882;4.326;2022-12-18T22:49:36;22.70;;;12.45;;
17794;SDS011;9021;50.882;4.326;2022-12-18T22:52:03;26.20;;;15.95;;
17794;SDS011;9021;50.882;4.326;2022-12-18T22:54:30;25.23;;;15.48;;
17794;SDS011;9021;50.882;4.326;2022-12-18T22:56:55;23.70;;;15.57;;
17794;SDS011;9021;50.882;4.326;2022-12-18T22:59:21;23.75;;;14.55;;
17794;SDS011;9021;50.882;4.326;2022-12-18T23:01:48;24.23;;;15.68;;
17794;SDS011;9021;50.882;4.326;2022-12-18T23:04:15;21.85;;;15.30;;
17794;SDS011;9021;50.882;4.326;2022-12-18T23:09:12;26.40;;;14.63;;
17794;SDS011;9021;50.882;4.326;2022-12-18T23:11:39;22.45;;;14.00;;
17794;SDS011;9021;50.882;4.326;2022-12-18T23:14:05;23.05;;;14.27;;
17794;SDS011;9021;50.882;4.326;2022-12-18T23:16:31;22.73;;;14.25;;
17794;SDS011;9021;50.882;4.326;2022-12-18T23:18:57;21.98;;;13.95;;
17794;SDS011;9021;50.882;4.326;2022-12-18T23:21:23;20.02;;;13.15;;
17794;SDS011;9021;50.882;4.326;2022-12-18T23:23:48;20.83;;;13.35;;
17794;SDS011;9021;50.882;4.326;2022-12-18T23:26:16;19.15;;;12.52;;
17794;SDS011;9021;50.882;4.326;2022-12-18T23:28:43;20.02;;;13.43;;
17794;SDS011;9021;50.882;4.326;2022-12-18T23:31:11;20.27;;;12.15;;
17794;SDS011;9021;50.882;4.326;2022-12-18T23:33:38;20.80;;;13.93;;
17794;SDS011;9021;50.882;4.326;2022-12-18T23:36:04;20.65;;;13.63;;
17794;SDS011;9021;50.882;4.326;2022-12-18T23:38:31;21.15;;;13.82;;
17794;SDS011;9021;50.882;4.326;2022-12-18T23:40:57;18.42;;;12.52;;
17794;SDS011;9021;50.882;4.326;2022-12-18T23:43:24;20.45;;;13.10;;
17794;SDS011;9021;50.882;4.326;2022-12-18T23:45:50;19.85;;;12.68;;
17794;SDS011;9021;50.882;4.326;2022-12-18T23:48:17;19.92;;;13.23;;
17794;SDS011;9021;50.882;4.326;2022-12-18T23:50:43;20.70;;;12.40;;
17794;SDS011;9021;50.882;4.326;2022-12-18T23:53:09;19.55;;;13.32;;
17794;SDS011;9021;50.882;4.326;2022-12-18T23:58:03;17.75;;;12.15;;
